CheckWX is a tool to help pilots better visualize weather data.  It is not intended as a substitute for an official pre-flight weather briefing.

13:56:38 UTC

FYWE METAR
Eros Airport
Windhoek, Namibia
Current

57 mins ago

FYWE 261300Z 27006KT CAVOK 30/M03 Q1023
Observed
Apr-26 @ 13:00 UTC
Wind
  • 270° at 6 KTS
Visibility
10,000+ meters
Flight Rules
VFR
Cloud Levels
  • Clear skies
Temperature
30°C / 86°F
Dewpoint
-3°C / 27°F
Humidity
11%
Altimeter
30.21" Hg
Pressure
1022.92 hPa
Previous

2 hours ago

FYWE 261200Z 04007KT CAVOK 29/M03 Q1023
Observed
Apr-26 @ 12:00 UTC
Wind
  • 040° at 7 KTS
Visibility
10,000+ meters
Flight Rules
VFR
Cloud Levels
  • Clear skies
Temperature
29°C / 84°F
Dewpoint
-3°C / 27°F
Humidity
12%
Altimeter
30.21" Hg
Pressure
1022.92 hPa
Previous

3 hours ago

FYWE 261100Z 32008KT CAVOK 29/M02 Q1024
Observed
Apr-26 @ 11:00 UTC
Wind
  • 320° at 8 KTS
Visibility
10,000+ meters
Flight Rules
VFR
Cloud Levels
  • Clear skies
Temperature
29°C / 84°F
Dewpoint
-2°C / 28°F
Humidity
13%
Altimeter
30.24" Hg
Pressure
1023.92 hPa